• Join FlightAware (Why Join?)
  • Login
  • US Flag 
10:45PM EDT


 

Airport Tracker/Info


-or-


 

Live Flight TrackerFlight Track Log ✈ N1525W ✈ 14-Aug-2013 ✈ KIAG - KCGF

Flight Track Log - Related Links

Times and Time Zones

All times are in EDT time to prevent confusion due to time zone crossing. See the N1525W flight status page for this flight to view local times or setup timezone preferences in your user account.

Time Position Orientation Groundspeed Altitude Reporting Facility
EDT Latitude Longitude Course Direction KTS MPH feet Rate Location/Type
07:11PM 43.1000 -78.9500 216° Southwest 83 96 900  Level Buffalo TRACON
07:12PM 43.0833 -78.9667 216° Southwest 101 116 2,100 900 Climbing Buffalo TRACON
07:13PM 43.0500 -78.9833 200° South 110 127 2,900 780 Climbing Buffalo TRACON
07:14PM 43.0333 -79.0000 216° Southwest 111 128 3,700 840 Climbing Buffalo TRACON
07:15PM 43.0000 -79.0167 200° South 117 135 4,600 840 Climbing Buffalo TRACON
07:16PM 42.9667 -79.0333 200° South 125 144 5,400 720 Climbing Buffalo TRACON
07:17PM 42.9333 -79.0500 200° South 121 139 6,100 600 Climbing Buffalo TRACON
07:18PM 42.9000 -79.0667 200° South 123 142 6,700 600 Climbing Buffalo TRACON
07:19PM 42.8667 -79.0833 200° South 126 145 7,400 600 Climbing Buffalo TRACON
07:20PM 42.8333 -79.1000 200° South 133 153 7,900 120 Climbing Buffalo TRACON
07:21PM 42.7833 -79.1333 206° Southwest 156 180 7,700 -420 Descending Buffalo TRACON
07:22PM 42.7500 -79.1500 200° South 192 221 7,100 -600 Descending Buffalo TRACON
07:23PM 42.7000 -79.1833 206° Southwest 188 216 6,600 -60 Descending Buffalo TRACON
07:25PM 42.6307 -79.2100 196° South  Level FlightAware Approximate
07:32PM 42.4005 -79.4363 239° Southwest  Level FlightAware Approximate
07:33PM 42.3781 -79.4863 239° Southwest  Level FlightAware Approximate
07:34PM 42.3557 -79.5363 239° Southwest  Level FlightAware Approximate
07:35PM 42.3333 -79.5863 239° Southwest  Level FlightAware Approximate
07:36PM 42.3108 -79.6362 239° Southwest  Level FlightAware Approximate
07:37PM 42.2884 -79.6861 239° Southwest  Level FlightAware Approximate
07:38PM 42.2659 -79.7360 239° Southwest  Level FlightAware Approximate
07:39PM 42.2434 -79.7858 239° Southwest  Level FlightAware Approximate
07:40PM 42.2209 -79.8356 239° Southwest  Level FlightAware Approximate
07:41PM 42.1983 -79.8854 239° Southwest  Level FlightAware Approximate
07:42PM 42.1758 -79.9351 239° Southwest  Level FlightAware Approximate
07:43PM 42.1532 -79.9848 238° Southwest  Level FlightAware Approximate
07:44PM 42.1306 -80.0344 238° Southwest  Level FlightAware Approximate
07:45PM 42.1079 -80.0840 238° Southwest  Level FlightAware Approximate
07:46PM 42.0853 -80.1336 238° Southwest  Level FlightAware Approximate
07:47PM 42.0626 -80.1832 238° Southwest  Level FlightAware Approximate
07:48PM 42.0399 -80.2327 238° Southwest  Level FlightAware Approximate
07:49PM 42.0172 -80.2821 238° Southwest  Level FlightAware Approximate
07:50PM 41.9875 -80.3243 226° Southwest  Level FlightAware Approximate
07:51PM 41.9576 -80.3662 226° Southwest  Level FlightAware Approximate
07:52PM 41.9276 -80.4081 226° Southwest  Level FlightAware Approximate
07:53PM 41.8977 -80.4499 226° Southwest  Level FlightAware Approximate
07:54PM 41.8677 -80.4917 226° Southwest  Level FlightAware Approximate
07:55PM 41.8377 -80.5335 226° Southwest  Level FlightAware Approximate
07:56PM 41.8078 -80.5752 226° Southwest  Level FlightAware Approximate
07:56PM 41.7139 -80.7194 226° Southwest 173 199 6,000  Level Cleveland Center
07:57PM 41.7777 -80.6169 226° Southwest  Level FlightAware Approximate
07:57PM 41.6639 -80.7917 227° Southwest 174 200 6,000  Level Cleveland Center
07:58PM 41.7477 -80.6585 226° Southwest  Level FlightAware Approximate
07:58PM 41.6408 -80.8414 238° Southwest 174 200 6,000  Level Cleveland Center
07:59PM 41.7177 -80.7001 226° Southwest  Level FlightAware Approximate
07:59PM 41.6386 -80.9028 267° West 168 193 6,000  Level Cleveland Center
08:00PM 41.6876 -80.7417 226° Southwest  Level FlightAware Approximate
08:00PM 41.6278 -80.9664 257° West 191 220 5,100  Level Cleveland Center
08:01PM 41.6576 -80.7832 226° Southwest  Level FlightAware Approximate
08:01PM 41.6194 -81.0303 260° West 169 194 4,500  Level Cleveland Center
08:02PM 41.6169 -81.0858 267° West 170 196 3,700 -780 Descending Cleveland Center
08:03PM 41.6042 -81.1553 256° West 167 192 3,000 -360 Descending Cleveland Center
08:04PM 41.6039 -81.2053 270° West 133 153 3,000  Level Cleveland Center
08:05PM 41.5975 -81.2522 260° West 138 159 3,000  Level Cleveland Center
08:06PM 41.5867 -81.3022 254° West 133 153 3,000 -60 Level Cleveland Center
08:07PM 41.5822 -81.3492 263° West 133 153 2,900 -420 Descending Cleveland Center
08:08PM 41.5756 -81.4019 260° West 153 176 2,200 -480 Descending Cleveland Center
08:09PM 41.5564 -81.4489 241° Southwest 145 167 2,000 -300 Descending Cleveland Center
08:10PM 41.5311 -81.4792 222° Southwest 118 136 1,700 -300 Descending Cleveland Center
08:11PM 41.5392 -81.5097 289° West 81 93 1,400 -300 Descending Cleveland Center
08:13PM 41.5500 -81.4833 37° Northeast  Level FlightAware Approximate
08:20PM 41.5651 -81.4864 37° Northeast  Level Estimated
08:21PM 41.5651 -81.4864 37° Northeast  Level Estimated